sensor_id;sensor_type;location;lat;lon;timestamp;pressure;altitude;pressure_sealevel;temperature;humidity
50282;BME280;36176;51.506;10.272;2022-11-03T00:01:13;99889.81;;;4.77;90.76
50282;BME280;36176;51.506;10.272;2022-11-03T00:03:43;99885.38;;;4.80;91.03
50282;BME280;36176;51.506;10.272;2022-11-03T00:06:10;99878.31;;;4.84;91.34
50282;BME280;36176;51.506;10.272;2022-11-03T00:08:40;99869.22;;;5.03;91.78
50282;BME280;36176;51.506;10.272;2022-11-03T00:11:08;99880.16;;;5.27;92.59
50282;BME280;36176;51.506;10.272;2022-11-03T00:13:37;99870.50;;;5.71;91.95
50282;BME280;36176;51.506;10.272;2022-11-03T00:16:06;99873.56;;;5.94;91.51
50282;BME280;36176;51.506;10.272;2022-11-03T00:18:33;99866.06;;;6.15;89.71
50282;BME280;36176;51.506;10.272;2022-11-03T00:21:03;99871.09;;;6.26;89.38
50282;BME280;36176;51.506;10.272;2022-11-03T00:23:33;99870.19;;;6.27;88.81
50282;BME280;36176;51.506;10.272;2022-11-03T00:26:15;99869.44;;;6.20;88.15
50282;BME280;36176;51.506;10.272;2022-11-03T00:28:44;99878.19;;;6.22;88.45
50282;BME280;36176;51.506;10.272;2022-11-03T00:31:17;99867.53;;;6.28;88.09
50282;BME280;36176;51.506;10.272;2022-11-03T00:33:46;99873.53;;;6.33;88.43
50282;BME280;36176;51.506;10.272;2022-11-03T00:36:17;99871.78;;;6.34;87.37
50282;BME280;36176;51.506;10.272;2022-11-03T00:38:45;99863.00;;;6.33;87.31
50282;BME280;36176;51.506;10.272;2022-11-03T00:41:13;99861.44;;;6.25;87.36
50282;BME280;36176;51.506;10.272;2022-11-03T00:43:41;99868.59;;;6.20;87.03
50282;BME280;36176;51.506;10.272;2022-11-03T00:46:09;99861.75;;;6.12;86.84
50282;BME280;36176;51.506;10.272;2022-11-03T00:48:37;99854.88;;;6.07;87.26
50282;BME280;36176;51.506;10.272;2022-11-03T00:53:33;99849.03;;;5.94;87.09
50282;BME280;36176;51.506;10.272;2022-11-03T00:56:00;99851.75;;;5.86;88.02
50282;BME280;36176;51.506;10.272;2022-11-03T00:58:28;99860.59;;;5.84;87.66
50282;BME280;36176;51.506;10.272;2022-11-03T01:01:03;99845.94;;;5.72;87.86
50282;BME280;36176;51.506;10.272;2022-11-03T01:03:32;99856.69;;;5.63;87.91
50282;BME280;36176;51.506;10.272;2022-11-03T01:06:00;99859.44;;;5.55;87.78
50282;BME280;36176;51.506;10.272;2022-11-03T01:08:46;99854.28;;;5.50;87.80
50282;BME280;36176;51.506;10.272;2022-11-03T01:11:19;99845.69;;;5.42;88.73
50282;BME280;36176;51.506;10.272;2022-11-03T01:14:05;99844.00;;;5.40;88.82
50282;BME280;36176;51.506;10.272;2022-11-03T01:16:33;99837.88;;;5.39;88.87
50282;BME280;36176;51.506;10.272;2022-11-03T01:19:00;99830.94;;;5.37;88.36
50282;BME280;36176;51.506;10.272;2022-11-03T01:21:28;99827.50;;;5.31;88.63
50282;BME280;36176;51.506;10.272;2022-11-03T01:23:55;99826.78;;;5.25;89.59
50282;BME280;36176;51.506;10.272;2022-11-03T01:26:22;99823.91;;;5.36;89.80
50282;BME280;36176;51.506;10.272;2022-11-03T01:28:49;99814.00;;;5.50;89.80
50282;BME280;36176;51.506;10.272;2022-11-03T01:31:19;99815.31;;;5.71;89.58
50282;BME280;36176;51.506;10.272;2022-11-03T01:33:48;99812.13;;;5.97;88.94
50282;BME280;36176;51.506;10.272;2022-11-03T01:36:17;99806.47;;;6.14;88.95
50282;BME280;36176;51.506;10.272;2022-11-03T01:38:45;99801.66;;;6.31;88.03
50282;BME280;36176;51.506;10.272;2022-11-03T01:41:18;99793.97;;;6.58;87.34
50282;BME280;36176;51.506;10.272;2022-11-03T01:43:49;99797.06;;;6.74;86.53
50282;BME280;36176;51.506;10.272;2022-11-03T01:46:27;99793.34;;;6.82;85.87
50282;BME280;36176;51.506;10.272;2022-11-03T01:49:00;99786.66;;;7.02;85.49
50282;BME280;36176;51.506;10.272;2022-11-03T01:51:33;99785.41;;;7.15;85.02
50282;BME280;36176;51.506;10.272;2022-11-03T01:54:08;99778.78;;;7.32;84.31
50282;BME280;36176;51.506;10.272;2022-11-03T01:56:39;99776.63;;;7.46;84.14
50282;BME280;36176;51.506;10.272;2022-11-03T01:59:08;99772.88;;;7.53;83.32
50282;BME280;36176;51.506;10.272;2022-11-03T02:01:36;99778.47;;;7.72;82.63
50282;BME280;36176;51.506;10.272;2022-11-03T02:04:10;99770.06;;;7.87;81.76
50282;BME280;36176;51.506;10.272;2022-11-03T02:06:39;99761.88;;;7.97;81.92
50282;BME280;36176;51.506;10.272;2022-11-03T02:09:08;99755.56;;;8.02;81.20
50282;BME280;36176;51.506;10.272;2022-11-03T02:11:36;99746.31;;;8.16;81.02
50282;BME280;36176;51.506;10.272;2022-11-03T02:14:22;99728.31;;;8.28;80.14
50282;BME280;36176;51.506;10.272;2022-11-03T02:16:52;99724.53;;;8.36;79.93
50282;BME280;36176;51.506;10.272;2022-11-03T02:19:36;99712.00;;;8.42;78.88
50282;BME280;36176;51.506;10.272;2022-11-03T02:28:03;99705.66;;;8.73;77.48
50282;BME280;36176;51.506;10.272;2022-11-03T02:35:53;99688.38;;;8.88;75.56
50282;BME280;36176;51.506;10.272;2022-11-03T02:38:26;99687.31;;;8.93;75.26
50282;BME280;36176;51.506;10.272;2022-11-03T02:40:56;99672.41;;;8.91;75.43
50282;BME280;36176;51.506;10.272;2022-11-03T02:43:25;99679.28;;;8.95;75.33
50282;BME280;36176;51.506;10.272;2022-11-03T02:45:54;99679.94;;;9.02;74.92
50282;BME280;36176;51.506;10.272;2022-11-03T02:48:22;99669.38;;;9.02;74.85
50282;BME280;36176;51.506;10.272;2022-11-03T02:50:51;99668.38;;;9.04;74.19
50282;BME280;36176;51.506;10.272;2022-11-03T02:53:26;99663.84;;;9.08;74.04
50282;BME280;36176;51.506;10.272;2022-11-03T02:56:15;99659.31;;;9.11;73.84
50282;BME280;36176;51.506;10.272;2022-11-03T02:59:00;99671.63;;;9.12;74.18
50282;BME280;36176;51.506;10.272;2022-11-03T03:01:36;99668.25;;;9.07;73.95
50282;BME280;36176;51.506;10.272;2022-11-03T03:04:27;99666.75;;;9.00;73.76
50282;BME280;36176;51.506;10.272;2022-11-03T03:07:00;99661.56;;;8.99;74.23
50282;BME280;36176;51.506;10.272;2022-11-03T03:09:38;99668.47;;;9.03;74.21
50282;BME280;36176;51.506;10.272;2022-11-03T03:12:11;99668.47;;;9.03;74.08
50282;BME280;36176;51.506;10.272;2022-11-03T03:14:44;99660.63;;;9.00;73.75
50282;BME280;36176;51.506;10.272;2022-11-03T03:17:33;99659.81;;;8.98;73.82
50282;BME280;36176;51.506;10.272;2022-11-03T03:23:08;99667.66;;;9.01;74.32
50282;BME280;36176;51.506;10.272;2022-11-03T03:26:15;99660.41;;;9.06;73.84
50282;BME280;36176;51.506;10.272;2022-11-03T03:28:52;99658.66;;;9.05;74.38
50282;BME280;36176;51.506;10.272;2022-11-03T03:31:26;99658.91;;;8.99;73.97
50282;BME280;36176;51.506;10.272;2022-11-03T03:33:56;99658.44;;;8.87;74.06
50282;BME280;36176;51.506;10.272;2022-11-03T03:36:43;99663.16;;;8.79;74.43
50282;BME280;36176;51.506;10.272;2022-11-03T03:39:13;99660.72;;;8.73;74.85
50282;BME280;36176;51.506;10.272;2022-11-03T03:41:44;99660.91;;;8.68;75.19
50282;BME280;36176;51.506;10.272;2022-11-03T03:44:14;99666.25;;;8.67;75.92
50282;BME280;36176;51.506;10.272;2022-11-03T03:46:52;99661.06;;;8.64;76.10
50282;BME280;36176;51.506;10.272;2022-11-03T03:49:22;99655.94;;;8.59;76.13
50282;BME280;36176;51.506;10.272;2022-11-03T03:52:02;99659.69;;;8.54;76.51
50282;BME280;36176;51.506;10.272;2022-11-03T03:54:30;99652.84;;;8.48;76.45
50282;BME280;36176;51.506;10.272;2022-11-03T03:57:02;99653.88;;;8.44;76.99
50282;BME280;36176;51.506;10.272;2022-11-03T03:59:31;99659.16;;;8.44;77.02
50282;BME280;36176;51.506;10.272;2022-11-03T04:01:59;99647.72;;;8.43;77.13
50282;BME280;36176;51.506;10.272;2022-11-03T04:04:26;99646.00;;;8.42;77.29
50282;BME280;36176;51.506;10.272;2022-11-03T04:06:54;99643.44;;;8.39;77.24
50282;BME280;36176;51.506;10.272;2022-11-03T04:09:47;99645.25;;;8.37;77.58
50282;BME280;36176;51.506;10.272;2022-11-03T04:12:14;99646.91;;;8.41;77.13
50282;BME280;36176;51.506;10.272;2022-11-03T04:15:18;99635.63;;;8.36;78.22
50282;BME280;36176;51.506;10.272;2022-11-03T04:18:03;99630.50;;;8.31;77.90
50282;BME280;36176;51.506;10.272;2022-11-03T04:20:49;99621.91;;;8.26;77.86
50282;BME280;36176;51.506;10.272;2022-11-03T04:23:35;99616.78;;;8.22;78.19
50282;BME280;36176;51.506;10.272;2022-11-03T04:26:12;99618.66;;;8.18;78.64
50282;BME280;36176;51.506;10.272;2022-11-03T04:28:43;99616.94;;;8.17;79.13
50282;BME280;36176;51.506;10.272;2022-11-03T04:31:15;99608.00;;;8.21;79.08
50282;BME280;36176;51.506;10.272;2022-11-03T04:33:43;99615.09;;;8.19;78.92
50282;BME280;36176;51.506;10.272;2022-11-03T04:36:20;99603.66;;;8.19;78.52
50282;BME280;36176;51.506;10.272;2022-11-03T04:38:49;99603.78;;;8.16;78.77
50282;BME280;36176;51.506;10.272;2022-11-03T04:41:23;99604.72;;;8.15;79.56
50282;BME280;36176;51.506;10.272;2022-11-03T04:43:51;99585.16;;;8.20;79.16
50282;BME280;36176;51.506;10.272;2022-11-03T04:46:24;99577.09;;;8.23;79.48
50282;BME280;36176;51.506;10.272;2022-11-03T04:48:59;99574.47;;;8.23;79.03
50282;BME280;36176;51.506;10.272;2022-11-03T04:51:32;99570.75;;;8.29;79.22
50282;BME280;36176;51.506;10.272;2022-11-03T04:54:12;99573.28;;;8.32;78.76
50282;BME280;36176;51.506;10.272;2022-11-03T04:56:41;99574.22;;;8.31;78.94
50282;BME280;36176;51.506;10.272;2022-11-03T04:59:13;99561.75;;;8.35;79.17
50282;BME280;36176;51.506;10.272;2022-11-03T05:01:42;99562.56;;;8.37;79.13
50282;BME280;36176;51.506;10.272;2022-11-03T05:04:13;99559.78;;;8.41;79.53
50282;BME280;36176;51.506;10.272;2022-11-03T05:06:45;99560.34;;;8.49;79.05
50282;BME280;36176;51.506;10.272;2022-11-03T05:09:18;99557.53;;;8.54;78.42
50282;BME280;36176;51.506;10.272;2022-11-03T05:11:46;99547.63;;;8.61;78.53
50282;BME280;36176;51.506;10.272;2022-11-03T05:14:17;99545.66;;;8.66;78.74
50282;BME280;36176;51.506;10.272;2022-11-03T05:16:49;99543.78;;;8.69;78.13
50282;BME280;36176;51.506;10.272;2022-11-03T05:19:20;99545.59;;;8.67;78.71
50282;BME280;36176;51.506;10.272;2022-11-03T05:21:49;99543.69;;;8.71;78.57
50282;BME280;36176;51.506;10.272;2022-11-03T05:24:23;99537.44;;;8.73;78.41
50282;BME280;36176;51.506;10.272;2022-11-03T05:26:57;99538.41;;;8.71;78.10
50282;BME280;36176;51.506;10.272;2022-11-03T05:31:55;99538.53;;;8.68;78.71
50282;BME280;36176;51.506;10.272;2022-11-03T05:34:56;99536.81;;;8.67;78.96
50282;BME280;36176;51.506;10.272;2022-11-03T05:37:32;99535.94;;;8.66;79.10
50282;BME280;36176;51.506;10.272;2022-11-03T05:40:05;99532.28;;;8.70;79.21
50282;BME280;36176;51.506;10.272;2022-11-03T05:42:44;99527.78;;;8.72;79.44
50282;BME280;36176;51.506;10.272;2022-11-03T05:47:43;99515.31;;;8.76;79.48
50282;BME280;36176;51.506;10.272;2022-11-03T05:50:27;99517.84;;;8.79;79.44
50282;BME280;36176;51.506;10.272;2022-11-03T05:53:20;99519.44;;;8.83;79.36
50282;BME280;36176;51.506;10.272;2022-11-03T05:55:44;99523.63;;;8.89;79.11
50282;BME280;36176;51.506;10.272;2022-11-03T05:58:28;99519.03;;;8.94;79.73
50282;BME280;36176;51.506;10.272;2022-11-03T06:00:58;99517.09;;;8.98;79.04
50282;BME280;36176;51.506;10.272;2022-11-03T06:03:28;99517.00;;;9.01;79.16
50282;BME280;36176;51.506;10.272;2022-11-03T06:05:57;99521.22;;;9.05;79.34
50282;BME280;36176;51.506;10.272;2022-11-03T06:08:35;99516.69;;;9.08;79.39
50282;BME280;36176;51.506;10.272;2022-11-03T06:11:09;99523.50;;;9.14;78.70
50282;BME280;36176;51.506;10.272;2022-11-03T06:13:41;99526.09;;;9.15;79.16
50282;BME280;36176;51.506;10.272;2022-11-03T06:18:55;99526.75;;;9.21;78.90
50282;BME280;36176;51.506;10.272;2022-11-03T06:21:24;99528.44;;;9.23;78.58
50282;BME280;36176;51.506;10.272;2022-11-03T06:23:55;99530.16;;;9.24;78.49
50282;BME280;36176;51.506;10.272;2022-11-03T06:26:26;99523.09;;;9.25;78.95
50282;BME280;36176;51.506;10.272;2022-11-03T06:28:54;99527.44;;;9.26;79.06
50282;BME280;36176;51.506;10.272;2022-11-03T06:31:30;99521.16;;;9.28;78.71
50282;BME280;36176;51.506;10.272;2022-11-03T06:37:19;99525.22;;;9.37;78.89
50282;BME280;36176;51.506;10.272;2022-11-03T06:39:48;99527.72;;;9.40;79.40
50282;BME280;36176;51.506;10.272;2022-11-03T06:42:19;99530.19;;;9.45;78.82
50282;BME280;36176;51.506;10.272;2022-11-03T06:44:49;99538.78;;;9.50;78.89
50282;BME280;36176;51.506;10.272;2022-11-03T06:47:21;99523.53;;;9.56;78.22
50282;BME280;36176;51.506;10.272;2022-11-03T06:49:50;99518.00;;;9.63;78.80
50282;BME280;36176;51.506;10.272;2022-11-03T06:57:29;99522.41;;;9.62;78.67
50282;BME280;36176;51.506;10.272;2022-11-03T07:00:00;99524.19;;;9.62;78.33
50282;BME280;36176;51.506;10.272;2022-11-03T07:03:13;99527.78;;;9.61;78.72
50282;BME280;36176;51.506;10.272;2022-11-03T07:05:43;99518.84;;;9.63;78.29
50282;BME280;36176;51.506;10.272;2022-11-03T07:10:46;99521.47;;;9.63;78.73
50282;BME280;36176;51.506;10.272;2022-11-03T07:13:18;99519.69;;;9.64;78.88
50282;BME280;36176;51.506;10.272;2022-11-03T07:15:48;99517.00;;;9.65;78.25
50282;BME280;36176;51.506;10.272;2022-11-03T07:18:37;99504.47;;;9.69;78.56
50282;BME280;36176;51.506;10.272;2022-11-03T07:21:23;99506.22;;;9.70;78.92
50282;BME280;36176;51.506;10.272;2022-11-03T07:23:51;99504.28;;;9.73;78.39
50282;BME280;36176;51.506;10.272;2022-11-03T07:26:19;99506.94;;;9.73;78.92
50282;BME280;36176;51.506;10.272;2022-11-03T07:28:46;99501.50;;;9.76;78.33
50282;BME280;36176;51.506;10.272;2022-11-03T07:31:32;99504.22;;;9.75;78.90
50282;BME280;36176;51.506;10.272;2022-11-03T07:33:59;99501.31;;;9.81;78.83
50282;BME280;36176;51.506;10.272;2022-11-03T07:36:29;99500.44;;;9.80;78.33
50282;BME280;36176;51.506;10.272;2022-11-03T07:38:59;99500.25;;;9.85;78.12
50282;BME280;36176;51.506;10.272;2022-11-03T07:41:30;99498.41;;;9.87;78.32
50282;BME280;36176;51.506;10.272;2022-11-03T07:44:01;99489.47;;;9.90;78.21
50282;BME280;36176;51.506;10.272;2022-11-03T07:46:28;99489.31;;;9.93;77.99
50282;BME280;36176;51.506;10.272;2022-11-03T07:48:57;99479.47;;;9.96;78.48
50282;BME280;36176;51.506;10.272;2022-11-03T07:51:31;99475.63;;;10.04;78.11
50282;BME280;36176;51.506;10.272;2022-11-03T07:56:38;99468.25;;;10.10;78.23
50282;BME280;36176;51.506;10.272;2022-11-03T07:59:15;99466.28;;;10.15;77.55
50282;BME280;36176;51.506;10.272;2022-11-03T08:01:52;99460.19;;;10.13;77.35
50282;BME280;36176;51.506;10.272;2022-11-03T08:07:40;99461.66;;;10.39;77.57
50282;BME280;36176;51.506;10.272;2022-11-03T08:10:08;99459.66;;;10.45;76.85
50282;BME280;36176;51.506;10.272;2022-11-03T08:12:35;99440.75;;;10.52;76.87
50282;BME280;36176;51.506;10.272;2022-11-03T08:15:02;99440.09;;;10.66;76.58
50282;BME280;36176;51.506;10.272;2022-11-03T08:17:30;99438.88;;;10.73;76.03
50282;BME280;36176;51.506;10.272;2022-11-03T08:19:57;99428.84;;;10.80;76.13
50282;BME280;36176;51.506;10.272;2022-11-03T08:22:29;99423.47;;;10.99;75.88
50282;BME280;36176;51.506;10.272;2022-11-03T08:24:56;99418.81;;;11.21;75.81
50282;BME280;36176;51.506;10.272;2022-11-03T08:27:23;99416.53;;;11.31;74.96
50282;BME280;36176;51.506;10.272;2022-11-03T08:29:50;99416.69;;;11.45;74.45
50282;BME280;36176;51.506;10.272;2022-11-03T08:32:17;99412.22;;;11.63;75.01
50282;BME280;36176;51.506;10.272;2022-11-03T08:34:45;99416.31;;;11.86;74.74
50282;BME280;36176;51.506;10.272;2022-11-03T08:37:12;99405.69;;;12.04;72.89
50282;BME280;36176;51.506;10.272;2022-11-03T08:39:39;99403.38;;;12.13;72.38
50282;BME280;36176;51.506;10.272;2022-11-03T08:42:06;99401.69;;;12.28;71.68
50282;BME280;36176;51.506;10.272;2022-11-03T08:44:34;99396.97;;;12.33;69.90
50282;BME280;36176;51.506;10.272;2022-11-03T08:47:03;99401.09;;;12.39;71.14
50282;BME280;36176;51.506;10.272;2022-11-03T08:49:30;99391.25;;;12.57;71.67
50282;BME280;36176;51.506;10.272;2022-11-03T08:51:58;99390.94;;;12.77;71.54
50282;BME280;36176;51.506;10.272;2022-11-03T08:54:25;99385.19;;;12.85;71.04
50282;BME280;36176;51.506;10.272;2022-11-03T08:56:52;99374.84;;;12.95;70.27
50282;BME280;36176;51.506;10.272;2022-11-03T08:59:19;99370.00;;;13.17;69.98
50282;BME280;36176;51.506;10.272;2022-11-03T09:01:46;99368.47;;;13.44;69.56
50282;BME280;36176;51.506;10.272;2022-11-03T09:04:15;99365.16;;;13.83;67.86
50282;BME280;36176;51.506;10.272;2022-11-03T09:06:42;99363.59;;;14.22;66.42
50282;BME280;36176;51.506;10.272;2022-11-03T09:09:10;99359.91;;;14.52;65.70
50282;BME280;36176;51.506;10.272;2022-11-03T09:11:57;99347.31;;;14.68;62.68
50282;BME280;36176;51.506;10.272;2022-11-03T09:14:24;99350.06;;;14.39;63.10
50282;BME280;36176;51.506;10.272;2022-11-03T09:16:52;99347.09;;;14.44;63.62
50282;BME280;36176;51.506;10.272;2022-11-03T09:19:19;99354.97;;;14.60;63.37
50282;BME280;36176;51.506;10.272;2022-11-03T09:21:46;99335.38;;;14.74;63.18
50282;BME280;36176;51.506;10.272;2022-11-03T09:24:13;99335.28;;;15.28;63.78
50282;BME280;36176;51.506;10.272;2022-11-03T09:26:41;99332.09;;;15.74;59.28
50282;BME280;36176;51.506;10.272;2022-11-03T09:29:08;99320.56;;;15.48;59.66
50282;BME280;36176;51.506;10.272;2022-11-03T09:31:35;99313.06;;;15.27;59.26
50282;BME280;36176;51.506;10.272;2022-11-03T09:34:03;99309.31;;;15.04;60.68
50282;BME280;36176;51.506;10.272;2022-11-03T09:36:30;99310.16;;;15.18;60.31
50282;BME280;36176;51.506;10.272;2022-11-03T09:38:57;99308.88;;;15.10;59.84
50282;BME280;36176;51.506;10.272;2022-11-03T09:41:24;99300.38;;;15.18;60.41
50282;BME280;36176;51.506;10.272;2022-11-03T09:44:12;99303.22;;;15.15;59.41
50282;BME280;36176;51.506;10.272;2022-11-03T09:46:39;99293.97;;;15.34;60.66
50282;BME280;36176;51.506;10.272;2022-11-03T09:49:07;99286.91;;;15.45;58.79
50282;BME280;36176;51.506;10.272;2022-11-03T09:51:34;99287.34;;;15.26;59.39
50282;BME280;36176;51.506;10.272;2022-11-03T09:54:03;99281.47;;;15.21;61.21
50282;BME280;36176;51.506;10.272;2022-11-03T09:56:34;99287.13;;;15.29;58.83
50282;BME280;36176;51.506;10.272;2022-11-03T09:59:16;99281.25;;;15.24;58.53
50282;BME280;36176;51.506;10.272;2022-11-03T10:01:45;99285.19;;;14.93;59.38
50282;BME280;36176;51.506;10.272;2022-11-03T10:04:16;99276.09;;;14.83;60.42
50282;BME280;36176;51.506;10.272;2022-11-03T10:06:44;99268.31;;;15.05;60.67
50282;BME280;36176;51.506;10.272;2022-11-03T10:09:15;99258.84;;;15.14;59.36
50282;BME280;36176;51.506;10.272;2022-11-03T10:11:44;99257.88;;;15.02;59.40
50282;BME280;36176;51.506;10.272;2022-11-03T10:14:15;99255.38;;;14.74;60.73
50282;BME280;36176;51.506;10.272;2022-11-03T10:16:51;99249.75;;;14.51;60.59
50282;BME280;36176;51.506;10.272;2022-11-03T10:19:19;99240.66;;;14.41;61.75
50282;BME280;36176;51.506;10.272;2022-11-03T10:21:47;99241.66;;;14.13;61.78
50282;BME280;36176;51.506;10.272;2022-11-03T10:24:14;99245.34;;;14.10;63.40
50282;BME280;36176;51.506;10.272;2022-11-03T10:26:49;99251.53;;;14.11;63.12
50282;BME280;36176;51.506;10.272;2022-11-03T10:29:26;99241.97;;;13.94;63.52
50282;BME280;36176;51.506;10.272;2022-11-03T10:31:56;99231.97;;;13.97;63.30
50282;BME280;36176;51.506;10.272;2022-11-03T10:37:16;99205.88;;;14.30;61.68
50282;BME280;36176;51.506;10.272;2022-11-03T10:39:43;99208.97;;;14.63;62.38
50282;BME280;36176;51.506;10.272;2022-11-03T10:42:27;99209.53;;;15.07;60.69
50282;BME280;36176;51.506;10.272;2022-11-03T10:45:16;99207.19;;;15.28;58.82
50282;BME280;36176;51.506;10.272;2022-11-03T10:47:44;99198.75;;;15.21;57.64
50282;BME280;36176;51.506;10.272;2022-11-03T10:50:27;99204.81;;;14.98;58.85
50282;BME280;36176;51.506;10.272;2022-11-03T10:52:54;99187.66;;;15.02;59.43
50282;BME280;36176;51.506;10.272;2022-11-03T10:55:23;99190.22;;;14.78;59.55
50282;BME280;36176;51.506;10.272;2022-11-03T10:57:53;99188.41;;;14.65;59.93
50282;BME280;36176;51.506;10.272;2022-11-03T11:00:24;99183.28;;;14.75;59.76
50282;BME280;36176;51.506;10.272;2022-11-03T11:02:57;99181.69;;;14.85;59.33
50282;BME280;36176;51.506;10.272;2022-11-03T11:05:25;99178.03;;;14.86;60.41
50282;BME280;36176;51.506;10.272;2022-11-03T11:07:53;99171.09;;;14.84;60.23
50282;BME280;36176;51.506;10.272;2022-11-03T11:10:26;99170.91;;;14.87;59.74
50282;BME280;36176;51.506;10.272;2022-11-03T11:13:24;99166.41;;;15.00;61.00
50282;BME280;36176;51.506;10.272;2022-11-03T11:15:57;99160.66;;;14.94;59.63
50282;BME280;36176;51.506;10.272;2022-11-03T11:20:59;99154.25;;;14.58;60.88
50282;BME280;36176;51.506;10.272;2022-11-03T11:28:39;99143.78;;;14.15;61.36
50282;BME280;36176;51.506;10.272;2022-11-03T11:31:30;99134.09;;;14.14;62.03
50282;BME280;36176;51.506;10.272;2022-11-03T11:42:17;99112.88;;;13.99;63.96
50282;BME280;36176;51.506;10.272;2022-11-03T11:44:47;99087.50;;;13.94;62.20
50282;BME280;36176;51.506;10.272;2022-11-03T11:52:46;99079.47;;;13.81;63.00
50282;BME280;36176;51.506;10.272;2022-11-03T11:55:19;99075.50;;;13.74;63.65
50282;BME280;36176;51.506;10.272;2022-11-03T11:57:48;99070.72;;;13.79;63.38
50282;BME280;36176;51.506;10.272;2022-11-03T12:00:34;99062.34;;;13.85;62.90
50282;BME280;36176;51.506;10.272;2022-11-03T12:03:04;99052.44;;;13.87;63.74
50282;BME280;36176;51.506;10.272;2022-11-03T12:05:34;99039.53;;;13.81;63.10
50282;BME280;36176;51.506;10.272;2022-11-03T12:08:16;99021.00;;;13.79;63.66
50282;BME280;36176;51.506;10.272;2022-11-03T12:10:54;99019.81;;;13.83;63.36
50282;BME280;36176;51.506;10.272;2022-11-03T12:13:46;99016.75;;;13.90;63.86
50282;BME280;36176;51.506;10.272;2022-11-03T12:18:54;99010.91;;;13.97;63.71
50282;BME280;36176;51.506;10.272;2022-11-03T12:21:48;99006.09;;;14.02;63.54
50282;BME280;36176;51.506;10.272;2022-11-03T12:26:59;98983.41;;;14.10;63.76
50282;BME280;36176;51.506;10.272;2022-11-03T12:29:27;98976.19;;;14.12;63.66
50282;BME280;36176;51.506;10.272;2022-11-03T12:31:54;98972.31;;;14.03;63.05
50282;BME280;36176;51.506;10.272;2022-11-03T12:34:21;98965.19;;;13.91;63.77
50282;BME280;36176;51.506;10.272;2022-11-03T12:36:49;98968.16;;;13.86;63.78
50282;BME280;36176;51.506;10.272;2022-11-03T12:39:22;98955.06;;;13.83;64.04
50282;BME280;36176;51.506;10.272;2022-11-03T12:41:49;98954.00;;;13.86;64.30
50282;BME280;36176;51.506;10.272;2022-11-03T12:44:16;98953.91;;;13.87;64.08
50282;BME280;36176;51.506;10.272;2022-11-03T12:46:44;98947.94;;;13.83;63.57
50282;BME280;36176;51.506;10.272;2022-11-03T12:49:14;98948.50;;;13.89;64.91
50282;BME280;36176;51.506;10.272;2022-11-03T12:51:41;98944.94;;;13.88;64.33
50282;BME280;36176;51.506;10.272;2022-11-03T12:54:09;98942.28;;;13.88;64.63
50282;BME280;36176;51.506;10.272;2022-11-03T12:56:36;98941.34;;;13.89;64.08
50282;BME280;36176;51.506;10.272;2022-11-03T12:59:03;98933.22;;;13.91;64.17
50282;BME280;36176;51.506;10.272;2022-11-03T13:01:31;98926.84;;;13.93;63.87
50282;BME280;36176;51.506;10.272;2022-11-03T13:03:59;98919.59;;;13.95;63.59
50282;BME280;36176;51.506;10.272;2022-11-03T13:06:26;98917.91;;;13.94;62.94
50282;BME280;36176;51.506;10.272;2022-11-03T13:08:54;98903.00;;;13.92;63.30
50282;BME280;36176;51.506;10.272;2022-11-03T13:11:21;98891.50;;;13.91;63.10
50282;BME280;36176;51.506;10.272;2022-11-03T13:14:07;98882.09;;;13.86;63.10
50282;BME280;36176;51.506;10.272;2022-11-03T13:16:34;98872.44;;;13.85;63.69
50282;BME280;36176;51.506;10.272;2022-11-03T13:19:02;98866.25;;;13.84;64.30
50282;BME280;36176;51.506;10.272;2022-11-03T13:21:29;98869.13;;;13.81;63.28
50282;BME280;36176;51.506;10.272;2022-11-03T13:27:11;98858.91;;;13.75;64.30
50282;BME280;36176;51.506;10.272;2022-11-03T13:29:38;98862.41;;;13.75;64.47
50282;BME280;36176;51.506;10.272;2022-11-03T13:32:07;98863.91;;;13.79;65.12
50282;BME280;36176;51.506;10.272;2022-11-03T13:34:54;98854.63;;;13.85;65.18
50282;BME280;36176;51.506;10.272;2022-11-03T13:37:21;98849.31;;;13.85;64.35
50282;BME280;36176;51.506;10.272;2022-11-03T13:40:01;98850.28;;;13.84;64.50
50282;BME280;36176;51.506;10.272;2022-11-03T13:42:29;98853.78;;;13.85;64.95
50282;BME280;36176;51.506;10.272;2022-11-03T13:44:56;98859.13;;;13.85;64.33
50282;BME280;36176;51.506;10.272;2022-11-03T13:47:23;98862.09;;;13.80;64.39
50282;BME280;36176;51.506;10.272;2022-11-03T13:50:10;98850.59;;;13.79;64.97
50282;BME280;36176;51.506;10.272;2022-11-03T13:52:41;98845.69;;;13.86;65.25
50282;BME280;36176;51.506;10.272;2022-11-03T13:55:10;98844.50;;;13.90;65.27
50282;BME280;36176;51.506;10.272;2022-11-03T13:57:58;98852.91;;;13.97;65.06
50282;BME280;36176;51.506;10.272;2022-11-03T14:00:45;98836.72;;;14.00;64.82
50282;BME280;36176;51.506;10.272;2022-11-03T14:03:12;98835.97;;;13.98;64.69
50282;BME280;36176;51.506;10.272;2022-11-03T14:05:59;98831.50;;;13.98;65.02
50282;BME280;36176;51.506;10.272;2022-11-03T14:08:47;98824.47;;;13.97;65.16
50282;BME280;36176;51.506;10.272;2022-11-03T14:11:21;98818.63;;;13.92;65.52
50282;BME280;36176;51.506;10.272;2022-11-03T14:14:06;98794.75;;;13.91;65.93
50282;BME280;36176;51.506;10.272;2022-11-03T14:16:34;98797.53;;;13.89;65.65
50282;BME280;36176;51.506;10.272;2022-11-03T14:19:01;98781.25;;;13.81;65.88
50282;BME280;36176;51.506;10.272;2022-11-03T14:21:28;98774.56;;;13.75;66.56
50282;BME280;36176;51.506;10.272;2022-11-03T14:24:03;98769.88;;;13.66;66.63
50282;BME280;36176;51.506;10.272;2022-11-03T14:26:30;98766.59;;;13.63;66.76
50282;BME280;36176;51.506;10.272;2022-11-03T14:29:08;98751.06;;;13.56;67.71
50282;BME280;36176;51.506;10.272;2022-11-03T14:31:36;98760.22;;;13.52;67.81
50282;BME280;36176;51.506;10.272;2022-11-03T14:34:03;98753.19;;;13.51;68.14
50282;BME280;36176;51.506;10.272;2022-11-03T14:36:30;98754.38;;;13.47;67.07